createdAt,value
2019-05-09T00:00:27.150Z,80.50
2019-05-09T00:02:57.955Z,80.50
2019-05-09T00:05:29.422Z,80.80
2019-05-09T00:08:00.263Z,80.80
2019-05-09T00:10:39.291Z,80.80
2019-05-09T00:13:03.803Z,81.00
2019-05-09T00:15:34.879Z,80.70
2019-05-09T00:18:05.688Z,81.00
2019-05-09T00:21:04.461Z,81.20
2019-05-09T00:23:35.323Z,81.80
2019-05-09T00:26:06.437Z,81.80
2019-05-09T00:28:40.637Z,82.30
2019-05-09T00:31:43.781Z,82.50
2019-05-09T00:34:23.472Z,82.70
2019-05-09T00:36:55.819Z,82.70
2019-05-09T00:39:26.373Z,82.80
2019-05-09T00:41:57.151Z,83.30
2019-05-09T00:44:29.890Z,83.00
2019-05-09T00:47:06.506Z,83.40
2019-05-09T00:49:37.727Z,82.90
2019-05-09T00:52:09.065Z,83.00
2019-05-09T00:54:39.849Z,83.10
2019-05-09T00:57:13.810Z,83.40
2019-05-09T00:59:45.162Z,83.30
2019-05-09T01:02:15.679Z,83.60
2019-05-09T01:04:46.630Z,84.00
2019-05-09T01:07:17.222Z,84.00
2019-05-09T01:09:47.914Z,84.00
2019-05-09T01:12:18.490Z,84.10
2019-05-09T01:14:49.119Z,84.10
2019-05-09T01:17:19.764Z,84.50
2019-05-09T01:19:50.876Z,84.20
2019-05-09T01:22:23.559Z,84.50
2019-05-09T01:24:53.536Z,84.40
2019-05-09T01:27:24.409Z,84.50
2019-05-09T01:29:55.065Z,84.50
2019-05-09T01:32:44.875Z,84.50
2019-05-09T01:35:15.474Z,84.60
2019-05-09T01:37:46.286Z,84.90
2019-05-09T01:40:18.063Z,85.00
2019-05-09T01:42:49.090Z,85.20
2019-05-09T01:45:19.875Z,85.70
2019-05-09T01:47:50.343Z,85.70
2019-05-09T01:50:20.833Z,86.00
2019-05-09T01:52:53.334Z,86.00
2019-05-09T01:55:43.284Z,86.00
2019-05-09T01:58:14.018Z,85.90
2019-05-09T02:00:44.935Z,86.30
2019-05-09T02:03:16.629Z,86.60
2019-05-09T02:05:47.325Z,85.80
2019-05-09T02:08:17.810Z,86.40
2019-05-09T02:10:48.474Z,86.40
2019-05-09T02:13:18.959Z,86.30
2019-05-09T02:16:00.608Z,86.40
2019-05-09T02:18:37.008Z,86.50
2019-05-09T02:21:11.363Z,86.80
2019-05-09T02:23:43.064Z,86.90
2019-05-09T02:26:13.657Z,87.00
2019-05-09T02:28:44.477Z,86.70
2019-05-09T02:31:16.448Z,87.00
2019-05-09T02:33:47.168Z,86.80
2019-05-09T02:36:18.954Z,86.90
2019-05-09T02:38:50.134Z,86.80
2019-05-09T02:41:20.783Z,86.90
2019-05-09T02:43:52.531Z,87.00
2019-05-09T02:46:38.655Z,87.10
2019-05-09T02:49:10.452Z,86.30
2019-05-09T02:51:40.916Z,86.40
2019-05-09T02:54:11.648Z,86.50
2019-05-09T02:56:42.124Z,86.80
2019-05-09T02:59:43.960Z,86.80
2019-05-09T03:02:22.798Z,86.60
2019-05-09T03:04:53.482Z,86.90
2019-05-09T03:07:42.942Z,87.00
2019-05-09T03:10:13.480Z,86.80
2019-05-09T03:12:44.434Z,87.10
2019-05-09T03:15:18.417Z,86.90
2019-05-09T03:17:49.505Z,86.90
2019-05-09T03:20:39.260Z,86.90
2019-05-09T03:23:10.348Z,87.50
2019-05-09T03:25:41.301Z,86.90
2019-05-09T03:28:40.000Z,86.90
2019-05-09T03:31:11.540Z,86.90
2019-05-09T03:33:42.566Z,87.10
2019-05-09T03:36:13.601Z,86.90
2019-05-09T03:38:44.479Z,87.10
2019-05-09T03:41:17.576Z,86.90
2019-05-09T03:43:48.238Z,86.60
2019-05-09T03:46:38.398Z,86.80
2019-05-09T03:49:09.818Z,87.30
2019-05-09T03:51:40.567Z,86.70
2019-05-09T03:54:11.376Z,87.60
2019-05-09T03:56:47.942Z,87.30
2019-05-09T03:59:19.438Z,87.20
2019-05-09T04:01:50.442Z,87.30
2019-05-09T04:04:21.266Z,87.40
2019-05-09T04:06:51.844Z,87.20
2019-05-09T04:09:22.260Z,88.00
2019-05-09T04:11:52.958Z,87.40
2019-05-09T04:14:28.030Z,87.10
2019-05-09T04:16:57.737Z,86.70
2019-05-09T04:19:28.207Z,86.90
2019-05-09T04:22:02.084Z,87.10
2019-05-09T04:24:31.592Z,87.60
2019-05-09T04:27:09.213Z,87.40
2019-05-09T04:29:39.821Z,87.20
2019-05-09T04:32:10.403Z,87.30
2019-05-09T04:34:40.939Z,86.90
2019-05-09T04:37:12.332Z,87.10
2019-05-09T04:39:42.990Z,87.40
2019-05-09T04:42:13.441Z,87.80
2019-05-09T04:44:57.404Z,87.90
2019-05-09T04:47:27.656Z,88.10
2019-05-09T04:49:58.389Z,87.90
2019-05-09T04:52:28.983Z,87.90
2019-05-09T04:54:59.561Z,88.70
2019-05-09T04:57:30.374Z,88.40
2019-05-09T05:00:00.990Z,88.70
2019-05-09T05:02:48.422Z,88.70
2019-05-09T05:05:19.696Z,88.40
2019-05-09T05:07:50.751Z,87.10
2019-05-09T05:10:21.545Z,87.30
2019-05-09T05:12:53.054Z,88.10
2019-05-09T05:15:23.888Z,88.20
2019-05-09T05:17:54.402Z,87.50
2019-05-09T05:20:27.750Z,87.10
2019-05-09T05:23:13.828Z,87.20
2019-05-09T05:25:44.546Z,86.90
2019-05-09T05:28:17.555Z,87.40
2019-05-09T05:30:48.201Z,88.40
2019-05-09T05:33:51.170Z,89.20
2019-05-09T05:36:19.263Z,89.10
2019-05-09T05:38:49.811Z,90.20
2019-05-09T05:41:20.651Z,90.20
2019-05-09T05:43:51.301Z,90.50
2019-05-09T05:46:34.553Z,90.10
2019-05-09T05:49:08.026Z,90.10
2019-05-09T05:51:50.901Z,90.90
2019-05-09T05:54:22.239Z,91.80
2019-05-09T05:56:53.178Z,91.80
2019-05-09T05:59:23.812Z,92.10
2019-05-09T06:01:54.577Z,92.40
2019-05-09T06:04:27.409Z,92.70
2019-05-09T06:06:58.837Z,93.00
2019-05-09T06:09:29.759Z,93.00
2019-05-09T06:12:00.767Z,92.80
2019-05-09T06:14:31.647Z,92.60
2019-05-09T06:17:02.670Z,92.60
2019-05-09T06:19:33.384Z,93.00
2019-05-09T06:22:04.003Z,92.80
2019-05-09T06:24:34.954Z,93.00
2019-05-09T06:27:09.789Z,92.70
2019-05-09T06:29:38.883Z,92.30
2019-05-09T06:32:10.114Z,92.10
2019-05-09T06:34:42.132Z,91.30
2019-05-09T06:37:13.090Z,91.30
2019-05-09T06:39:44.112Z,91.40
2019-05-09T06:42:14.822Z,91.30
2019-05-09T06:45:04.464Z,91.30
2019-05-09T06:47:38.175Z,91.00
2019-05-09T06:50:11.374Z,91.00
2019-05-09T06:52:42.389Z,91.10
2019-05-09T06:55:13.198Z,91.20
2019-05-09T06:57:44.494Z,90.40
2019-05-09T07:00:23.867Z,90.80
2019-05-09T07:03:00.884Z,91.00
2019-05-09T07:05:52.623Z,90.90
2019-05-09T07:08:33.020Z,90.70
2019-05-09T07:11:04.068Z,90.20
2019-05-09T07:13:34.758Z,90.20
2019-05-09T07:16:06.005Z,90.40
2019-05-09T07:18:38.308Z,90.80
2019-05-09T07:21:09.711Z,91.20
2019-05-09T07:23:40.511Z,90.20
2019-05-09T07:26:19.540Z,90.20
2019-05-09T07:28:59.538Z,90.30
2019-05-09T07:31:39.129Z,90.70
2019-05-09T07:34:22.449Z,90.60
2019-05-09T07:36:53.590Z,90.70
2019-05-09T07:39:24.477Z,90.50
2019-05-09T07:41:55.234Z,90.60
2019-05-09T07:44:29.894Z,90.20
2019-05-09T07:47:00.183Z,90.50
2019-05-09T07:49:32.149Z,90.40
2019-05-09T07:52:06.842Z,90.20
2019-05-09T07:54:37.554Z,90.10
2019-05-09T07:57:08.519Z,90.20
2019-05-09T07:59:40.206Z,90.40
2019-05-09T08:02:11.236Z,90.20
2019-05-09T08:04:42.114Z,90.70
2019-05-09T08:07:12.848Z,90.60
2019-05-09T08:09:43.557Z,91.40
2019-05-09T08:12:14.435Z,91.30
2019-05-09T08:14:55.346Z,91.00
2019-05-09T08:17:18.188Z,91.50
2019-05-09T08:19:49.052Z,91.60
2019-05-09T08:22:25.384Z,91.60
2019-05-09T08:24:52.356Z,91.60
2019-05-09T08:27:23.166Z,91.40
2019-05-09T08:29:53.928Z,91.40
2019-05-09T08:32:24.740Z,91.40
2019-05-09T08:34:57.488Z,91.30
2019-05-09T08:37:28.436Z,91.10
2019-05-09T08:39:59.299Z,91.30
2019-05-09T08:42:30.034Z,91.80
2019-05-09T08:45:00.747Z,91.60
2019-05-09T08:47:31.441Z,91.60
2019-05-09T08:50:17.682Z,91.60
2019-05-09T08:52:48.643Z,91.70
2019-05-09T08:55:19.554Z,92.00
2019-05-09T08:57:50.264Z,92.20
2019-05-09T09:00:21.371Z,90.90
2019-05-09T09:02:52.263Z,91.30
2019-05-09T09:05:23.006Z,91.30
2019-05-09T09:07:57.585Z,91.60
2019-05-09T09:10:29.086Z,91.20
2019-05-09T09:12:59.324Z,92.10
2019-05-09T09:15:55.612Z,92.10
2019-05-09T09:18:03.706Z,91.70
2019-05-09T09:20:34.532Z,90.50
2019-05-09T09:23:05.214Z,90.40
2019-05-09T09:25:38.925Z,90.80
2019-05-09T09:28:09.949Z,91.40
2019-05-09T09:30:40.911Z,91.60
2019-05-09T09:33:13.946Z,91.60
2019-05-09T09:35:44.088Z,91.40
2019-05-09T09:38:15.008Z,91.10
2019-05-09T09:40:47.792Z,90.90
2019-05-09T09:43:18.213Z,90.50
2019-05-09T09:46:05.135Z,90.10
2019-05-09T09:48:21.760Z,90.20
2019-05-09T09:50:52.497Z,90.20
2019-05-09T09:53:22.985Z,90.30
2019-05-09T09:55:54.036Z,90.30
2019-05-09T09:58:27.403Z,90.00
2019-05-09T10:01:23.157Z,89.00
2019-05-09T10:04:16.711Z,89.00
2019-05-09T10:06:39.091Z,88.50
2019-05-09T10:09:10.668Z,85.80
2019-05-09T10:11:41.545Z,85.70
2019-05-09T10:14:15.540Z,86.90
2019-05-09T10:17:05.532Z,84.50
2019-05-09T10:19:41.825Z,85.20
2019-05-09T10:22:24.029Z,86.60
2019-05-09T10:24:49.073Z,86.90
2019-05-09T10:27:19.912Z,86.00
2019-05-09T10:29:50.918Z,87.30
2019-05-09T10:32:21.631Z,86.80
2019-05-09T10:34:52.351Z,86.20
2019-05-09T10:37:22.920Z,86.40
2019-05-09T10:39:54.064Z,86.70
2019-05-09T10:42:43.663Z,85.90
2019-05-09T10:45:31.354Z,86.70
2019-05-09T10:48:02.240Z,86.70
2019-05-09T10:50:34.704Z,86.90
2019-05-09T10:53:07.998Z,87.90
2019-05-09T10:55:38.652Z,87.10
2019-05-09T10:58:09.629Z,87.70
2019-05-09T11:00:40.372Z,87.90
2019-05-09T11:03:11.383Z,87.60
2019-05-09T11:05:42.044Z,88.00
2019-05-09T11:08:12.873Z,85.90
2019-05-09T11:10:47.354Z,84.90
2019-05-09T11:13:18.139Z,85.40
2019-05-09T11:15:49.074Z,85.90
2019-05-09T11:18:19.642Z,85.10
2019-05-09T11:20:50.437Z,84.60
2019-05-09T11:23:22.985Z,84.40
2019-05-09T11:25:53.557Z,84.30
2019-05-09T11:28:24.373Z,85.00
2019-05-09T11:30:55.051Z,85.60
2019-05-09T11:33:27.791Z,85.30
2019-05-09T11:35:58.264Z,85.30
2019-05-09T11:38:34.382Z,84.80
2019-05-09T11:41:01.219Z,85.40
2019-05-09T11:43:31.856Z,86.20
2019-05-09T11:46:02.570Z,86.50
2019-05-09T11:48:34.127Z,85.20
2019-05-09T11:51:05.184Z,85.50
2019-05-09T11:53:37.002Z,85.50
2019-05-09T11:56:08.334Z,84.80
2019-05-09T11:58:39.298Z,85.40
2019-05-09T12:01:09.826Z,86.00
2019-05-09T12:03:40.717Z,85.70
2019-05-09T12:06:11.306Z,84.90
2019-05-09T12:08:42.369Z,84.90
2019-05-09T12:11:13.158Z,84.90
2019-05-09T12:13:43.938Z,85.00
2019-05-09T12:16:15.019Z,84.60
2019-05-09T12:18:48.515Z,84.40
2019-05-09T12:21:19.541Z,84.60
2019-05-09T12:23:51.092Z,84.30
2019-05-09T12:26:21.598Z,84.80
2019-05-09T12:28:52.798Z,85.00
2019-05-09T12:31:23.507Z,84.70
2019-05-09T12:33:54.358Z,84.80
2019-05-09T12:36:28.375Z,84.90
2019-05-09T12:38:59.085Z,85.10
2019-05-09T12:41:31.694Z,83.90
2019-05-09T12:44:03.482Z,83.40
2019-05-09T12:46:34.223Z,83.30
2019-05-09T12:49:04.723Z,82.80
2019-05-09T12:51:37.052Z,83.10
2019-05-09T12:54:08.861Z,83.70
2019-05-09T12:56:41.094Z,84.40
2019-05-09T12:59:11.904Z,83.90
2019-05-09T13:01:42.513Z,84.40
2019-05-09T13:04:14.221Z,83.60
2019-05-09T13:06:44.880Z,83.00
2019-05-09T13:09:17.822Z,83.20
2019-05-09T13:11:48.394Z,83.00
2019-05-09T13:14:19.671Z,83.40
2019-05-09T13:17:01.591Z,83.70
2019-05-09T13:19:38.207Z,83.80
2019-05-09T13:22:09.046Z,84.60
2019-05-09T13:24:39.905Z,84.50
2019-05-09T13:27:10.994Z,84.10
2019-05-09T13:29:41.625Z,83.10
2019-05-09T13:32:12.113Z,82.80
2019-05-09T13:34:42.914Z,83.60
2019-05-09T13:37:13.668Z,83.40
2019-05-09T13:39:44.468Z,83.80
2019-05-09T13:42:19.537Z,83.80
2019-05-09T13:44:50.434Z,83.30
2019-05-09T13:47:21.362Z,82.80
2019-05-09T13:49:51.984Z,83.70
2019-05-09T13:52:22.903Z,84.60
2019-05-09T13:54:53.466Z,83.60
2019-05-09T13:57:27.460Z,83.30
2019-05-09T13:59:58.508Z,84.40
2019-05-09T14:02:29.762Z,84.40
2019-05-09T14:05:00.608Z,84.80
2019-05-09T14:07:31.392Z,85.70
2019-05-09T14:10:01.918Z,84.60
2019-05-09T14:12:32.939Z,84.60
2019-05-09T14:15:03.546Z,82.90
2019-05-09T14:17:48.382Z,81.30
2019-05-09T14:20:08.863Z,80.90
2019-05-09T14:22:39.279Z,81.40
2019-05-09T14:25:11.622Z,81.60
2019-05-09T14:27:42.211Z,81.80
2019-05-09T14:30:13.845Z,83.00
2019-05-09T14:32:44.651Z,82.90
2019-05-09T14:35:17.949Z,82.90
2019-05-09T14:37:48.804Z,83.40
2019-05-09T14:40:19.694Z,82.90
2019-05-09T14:42:50.286Z,82.80
2019-05-09T14:45:21.014Z,82.80
2019-05-09T14:47:51.619Z,83.90
2019-05-09T14:50:22.465Z,83.40
2019-05-09T14:52:53.337Z,83.90
2019-05-09T14:55:24.274Z,82.90
2019-05-09T14:57:55.070Z,83.00
2019-05-09T15:00:26.291Z,83.40
2019-05-09T15:02:58.138Z,83.50
2019-05-09T15:05:28.834Z,83.70
2019-05-09T15:07:59.542Z,86.60
2019-05-09T15:10:30.220Z,90.00
2019-05-09T15:13:00.999Z,90.70
2019-05-09T15:15:32.746Z,90.80
2019-05-09T15:18:03.473Z,91.30
2019-05-09T15:20:37.934Z,91.60
2019-05-09T15:23:08.639Z,92.20
2019-05-09T15:25:39.318Z,92.40
2019-05-09T15:28:10.137Z,92.20
2019-05-09T15:30:40.921Z,92.40
2019-05-09T15:33:11.640Z,92.90
2019-05-09T15:35:42.597Z,93.10
2019-05-09T15:38:13.403Z,93.00
2019-05-09T15:40:44.273Z,93.00
2019-05-09T15:43:15.139Z,92.90
2019-05-09T15:45:54.369Z,93.00
2019-05-09T15:48:27.341Z,93.10
2019-05-09T15:50:58.255Z,93.20
2019-05-09T15:53:29.064Z,93.50
2019-05-09T15:56:00.142Z,93.50
2019-05-09T15:58:30.922Z,93.50
2019-05-09T16:01:01.805Z,93.70
2019-05-09T16:03:32.985Z,93.60
2019-05-09T16:06:03.919Z,93.50
2019-05-09T16:08:37.888Z,93.20
2019-05-09T16:11:08.739Z,93.30
2019-05-09T16:13:39.728Z,93.70
2019-05-09T16:16:10.962Z,93.90
2019-05-09T16:18:42.962Z,94.40
2019-05-09T16:21:15.136Z,94.50
2019-05-09T16:23:48.396Z,94.60
2019-05-09T16:26:18.475Z,94.70
2019-05-09T16:28:50.475Z,94.80
2019-05-09T16:31:21.362Z,94.70
2019-05-09T16:33:52.144Z,94.70
2019-05-09T16:36:23.096Z,94.50
2019-05-09T16:38:53.999Z,94.50
2019-05-09T16:41:24.887Z,94.70
2019-05-09T16:43:58.163Z,94.90
2019-05-09T16:46:28.710Z,95.00
2019-05-09T16:49:00.664Z,94.90
2019-05-09T16:51:31.647Z,94.80
2019-05-09T16:54:02.396Z,94.80
2019-05-09T16:56:33.063Z,94.90
2019-05-09T16:59:04.886Z,95.00
2019-05-09T17:01:39.502Z,94.60
2019-05-09T17:04:09.624Z,94.20
2019-05-09T17:06:40.946Z,94.20
2019-05-09T17:09:13.454Z,94.20
2019-05-09T17:11:47.876Z,94.30
2019-05-09T17:14:19.306Z,94.60
2019-05-09T17:16:52.783Z,94.80
2019-05-09T17:19:22.601Z,94.80
2019-05-09T17:22:16.604Z,95.20
2019-05-09T17:24:49.406Z,95.40
2019-05-09T17:27:20.213Z,95.50
2019-05-09T17:29:51.278Z,95.70
2019-05-09T17:32:22.072Z,95.40
2019-05-09T17:34:52.963Z,95.70
2019-05-09T17:37:28.568Z,96.00
2019-05-09T17:39:58.173Z,96.10
2019-05-09T17:42:29.261Z,96.20
2019-05-09T17:45:00.525Z,96.30
2019-05-09T17:47:31.364Z,96.20
2019-05-09T17:50:02.616Z,96.30
2019-05-09T17:52:33.595Z,96.40
2019-05-09T17:55:04.656Z,96.40
2019-05-09T17:57:35.648Z,96.50
2019-05-09T18:00:08.140Z,96.60
2019-05-09T18:02:38.774Z,96.60
2019-05-09T18:05:09.444Z,96.70
2019-05-09T18:07:40.391Z,96.70
2019-05-09T18:10:11.652Z,96.60
2019-05-09T18:12:42.664Z,96.40
2019-05-09T18:15:14.068Z,96.20
2019-05-09T18:17:44.979Z,96.10
2019-05-09T18:20:17.626Z,96.00
2019-05-09T18:22:48.114Z,96.10
2019-05-09T18:25:18.931Z,96.30
2019-05-09T18:27:49.629Z,96.40
2019-05-09T18:30:20.798Z,96.50
2019-05-09T18:33:03.161Z,96.50
2019-05-09T18:35:33.996Z,96.80
2019-05-09T18:38:07.808Z,96.70
2019-05-09T18:40:38.138Z,96.90
2019-05-09T18:43:08.944Z,97.00
2019-05-09T18:45:39.544Z,97.00
2019-05-09T18:48:10.247Z,97.00
2019-05-09T18:50:41.120Z,97.00
2019-05-09T18:53:12.195Z,97.00
2019-05-09T18:55:43.238Z,97.00
2019-05-09T18:58:14.310Z,96.90
2019-05-09T19:00:45.365Z,96.80
2019-05-09T19:03:16.015Z,96.70
2019-05-09T19:05:46.904Z,97.00
2019-05-09T19:08:17.705Z,97.00
2019-05-09T19:10:52.143Z,97.10
2019-05-09T19:13:21.213Z,97.00
2019-05-09T19:16:25.795Z,97.10
2019-05-09T19:19:33.939Z,97.10
2019-05-09T19:22:21.047Z,97.40
2019-05-09T19:24:38.033Z,96.90
2019-05-09T19:27:09.048Z,97.00
2019-05-09T19:29:41.181Z,97.00
2019-05-09T19:32:11.910Z,97.10
2019-05-09T19:34:44.619Z,97.20
2019-05-09T19:37:15.541Z,97.00
2019-05-09T19:39:46.449Z,96.70
2019-05-09T19:42:17.210Z,96.70
2019-05-09T19:44:48.416Z,96.70
2019-05-09T19:47:19.348Z,96.60
2019-05-09T19:49:50.181Z,96.70
2019-05-09T19:52:36.209Z,96.70
2019-05-09T19:54:53.940Z,96.70
2019-05-09T19:57:24.828Z,96.70
2019-05-09T19:59:55.360Z,96.80
2019-05-09T20:02:26.116Z,96.90
2019-05-09T20:04:56.742Z,97.10
2019-05-09T20:07:30.574Z,97.20
2019-05-09T20:10:21.789Z,97.20
2019-05-09T20:13:21.813Z,97.20
2019-05-09T20:15:52.659Z,97.20
2019-05-09T20:18:24.450Z,97.40
2019-05-09T20:20:55.556Z,97.10
2019-05-09T20:23:26.687Z,97.10
2019-05-09T20:25:58.245Z,97.10
2019-05-09T20:28:29.297Z,96.80
2019-05-09T20:31:00.009Z,96.70
2019-05-09T20:33:31.033Z,96.70
2019-05-09T20:36:02.006Z,96.80
2019-05-09T20:38:33.891Z,96.80
2019-05-09T20:41:04.927Z,96.70
2019-05-09T20:43:35.915Z,96.70
2019-05-09T20:46:10.115Z,96.80
2019-05-09T20:48:39.619Z,97.10
2019-05-09T20:51:10.799Z,97.10
2019-05-09T20:53:41.739Z,97.30
2019-05-09T20:56:12.512Z,97.00
2019-05-09T20:58:43.718Z,97.10
2019-05-09T21:01:14.624Z,97.00
2019-05-09T21:03:59.030Z,96.70
2019-05-09T21:06:18.166Z,96.60
2019-05-09T21:08:48.944Z,96.50
2019-05-09T21:11:21.179Z,96.40
2019-05-09T21:13:52.367Z,96.40
2019-05-09T21:16:23.459Z,96.50
2019-05-09T21:18:54.590Z,96.60
2019-05-09T21:21:25.492Z,96.50
2019-05-09T21:23:56.667Z,96.60
2019-05-09T21:26:27.493Z,96.50
2019-05-09T21:28:58.440Z,96.60
2019-05-09T21:31:29.294Z,96.60
2019-05-09T21:34:00.364Z,96.80
2019-05-09T21:36:31.238Z,96.60
2019-05-09T21:39:02.244Z,96.60
2019-05-09T21:41:34.552Z,96.60
2019-05-09T21:44:05.506Z,96.90
2019-05-09T21:46:36.304Z,96.60
2019-05-09T21:49:06.989Z,96.70
2019-05-09T21:51:38.820Z,96.80
2019-05-09T21:54:09.328Z,96.80
2019-05-09T21:56:39.845Z,96.70
2019-05-09T21:59:10.464Z,96.60
2019-05-09T22:01:42.165Z,96.70
2019-05-09T22:04:12.903Z,96.50
2019-05-09T22:06:44.464Z,96.50
2019-05-09T22:09:15.202Z,96.50
2019-05-09T22:11:46.417Z,96.50
2019-05-09T22:14:17.036Z,96.50
2019-05-09T22:16:49.377Z,96.70
2019-05-09T22:19:19.911Z,96.80
2019-05-09T22:21:50.448Z,96.90
2019-05-09T22:24:20.947Z,96.70
2019-05-09T22:26:51.724Z,96.90
2019-05-09T22:29:22.295Z,96.80
2019-05-09T22:31:52.915Z,96.80
2019-05-09T22:34:24.581Z,96.80
2019-05-09T22:36:55.541Z,96.90
2019-05-09T22:39:26.019Z,96.90
2019-05-09T22:41:56.827Z,96.70
2019-05-09T22:44:27.511Z,96.70
2019-05-09T22:46:58.320Z,96.70
2019-05-09T22:49:29.471Z,96.80
2019-05-09T22:52:00.131Z,96.80
2019-05-09T22:54:30.985Z,96.70
2019-05-09T22:57:01.668Z,96.80
2019-05-09T22:59:32.432Z,96.70
2019-05-09T23:02:06.846Z,96.60
2019-05-09T23:04:35.335Z,96.50
2019-05-09T23:07:06.073Z,96.50
2019-05-09T23:09:36.660Z,96.40
2019-05-09T23:12:07.294Z,96.30
2019-05-09T23:14:37.851Z,96.30
2019-05-09T23:17:09.427Z,96.40
2019-05-09T23:19:40.020Z,96.40
2019-05-09T23:22:11.309Z,96.30
2019-05-09T23:24:44.714Z,96.50
2019-05-09T23:27:16.932Z,96.20
2019-05-09T23:29:47.699Z,96.30
2019-05-09T23:32:27.742Z,96.40
2019-05-09T23:34:58.612Z,96.50
2019-05-09T23:37:29.134Z,96.50
2019-05-09T23:39:59.720Z,96.60
2019-05-09T23:42:30.423Z,96.80
2019-05-09T23:45:00.918Z,97.00
2019-05-09T23:47:31.633Z,96.90
2019-05-09T23:50:02.213Z,97.00
2019-05-09T23:52:32.889Z,96.90
2019-05-09T23:55:21.099Z,97.00
2019-05-09T23:58:09.412Z,97.20
